METAR AND TAF INFORMATION
METAR FOR UNOO
ADDS - METARS form results

(0622 UTC 21 November 2019)
Data provider http://aviationweather.gov/metar/data/
 
METAR text: UNOO 210600Z 27005MPS 9999 SCT033 M17/M19 Q1033 R25/410245 NOSIG RMK QFE767
Conditions at: UNOO (TSENTRALNY/OMSK , RU) observed 0600 UTC 21 November 2019
Temperature: -17.0°C ( 1°F)
Dewpoint: -19.0°C (-2°F) [RH = 84%]
Pressure (altimeter): 30.50 inches Hg (1033.0 mb)
Winds: from the W (270 degrees) at 12 MPH (10 knots; 5.1 m/s)
Visibility: 6 or more miles (10+ km)
Ceiling: at least 12,000 feet AGL
Clouds: scattered clouds at 3300 feet AGL
Weather: no significant weather observed at this time

METAR text: UNOO 210530Z 28005MPS 9999 SCT033 M17/M20 Q1034 R25/410250 NOSIG RMK QFE767
Conditions at: UNOO (TSENTRALNY/OMSK , RU) observed 0530 UTC 21 November 2019
Temperature: -17.0°C ( 1°F)
Dewpoint: -20.0°C (-4°F) [RH = 77%]
Pressure (altimeter): 30.53 inches Hg (1034.0 mb)
Winds: from the W (280 degrees) at 12 MPH (10 knots; 5.1 m/s)
Visibility: 6 or more miles (10+ km)
Ceiling: at least 12,000 feet AGL
Clouds: scattered clouds at 3300 feet AGL
Weather: no significant weather observed at this time

Forecast for: UNOO (TSENTRALNY/OMSK , RU)
Text: TAF UNOO 210450Z 2106/2206 27005G11MPS 6000 BKN011 BKN020CB
Forecast period: 0600 UTC 21 November 2019 to 0600 UTC 22 November 2019
Forecast type: FROM: standard forecast or significant change
Winds: from the W (270 degrees) at 12 MPH (10 knots; 5.1 m/s)
gusting to 24 MPH (21 knots; 10.8 m/s)
Visibility: 4 miles (6 km)
Ceiling: 1100 feet AGL
Clouds: broken clouds at 1100 feet AGL
broken clouds at 2000 feet AGL
Weather: no significant weather forecast for this period

 AIRPORT MAP

 RUNWAY INFORMATION

 AIRPORT FREQUENCIES
Type ATIS Name ATIS Frequency 126.4 MHZ
Type GND Name TAXIING Frequency 121.7 MHZ
Type RDR Name KRUG Frequency 119 MHZ
Type TWR Name START Frequency 119 MHZ

 AIRPORT NEAR NAVIGATION AIDS
Type NDB Name Omsk Frequency 332 KHZ
Type NDB Name Omsk Frequency 332 KHZ



2018 Air Astana Virtual Airline